sensor_id;sensor_type;location;lat;lon;timestamp;P1;durP1;ratioP1;P2;durP2;ratioP2
45402;SDS011;47427;51.976;5.326;2022-12-18T00:00:28;116.38;;;50.15;;
45402;SDS011;47427;51.976;5.326;2022-12-18T00:03:50;108.93;;;49.17;;
45402;SDS011;47427;51.976;5.326;2022-12-18T00:07:13;106.97;;;46.38;;
45402;SDS011;47427;51.976;5.326;2022-12-18T00:10:35;108.97;;;46.85;;
45402;SDS011;47427;51.976;5.326;2022-12-18T00:13:57;116.13;;;49.42;;
45402;SDS011;47427;51.976;5.326;2022-12-18T00:17:20;107.47;;;46.25;;
45402;SDS011;47427;51.976;5.326;2022-12-18T00:20:42;98.13;;;44.65;;
45402;SDS011;47427;51.976;5.326;2022-12-18T00:24:03;94.07;;;43.58;;
45402;SDS011;47427;51.976;5.326;2022-12-18T00:27:25;100.45;;;44.83;;
45402;SDS011;47427;51.976;5.326;2022-12-18T00:30:47;118.18;;;50.28;;
45402;SDS011;47427;51.976;5.326;2022-12-18T00:34:12;109.05;;;49.35;;
45402;SDS011;47427;51.976;5.326;2022-12-18T00:37:34;112.43;;;45.75;;
45402;SDS011;47427;51.976;5.326;2022-12-18T00:40:56;111.28;;;48.58;;
45402;SDS011;47427;51.976;5.326;2022-12-18T00:44:19;100.55;;;46.90;;
45402;SDS011;47427;51.976;5.326;2022-12-18T00:47:42;107.25;;;45.80;;
45402;SDS011;47427;51.976;5.326;2022-12-18T00:51:04;99.68;;;43.78;;
45402;SDS011;47427;51.976;5.326;2022-12-18T00:54:28;96.47;;;42.78;;
45402;SDS011;47427;51.976;5.326;2022-12-18T00:57:51;98.63;;;39.80;;
45402;SDS011;47427;51.976;5.326;2022-12-18T01:01:15;92.85;;;42.47;;
45402;SDS011;47427;51.976;5.326;2022-12-18T01:04:38;94.30;;;42.90;;
45402;SDS011;47427;51.976;5.326;2022-12-18T01:08:01;103.32;;;46.00;;
45402;SDS011;47427;51.976;5.326;2022-12-18T01:11:24;92.53;;;42.20;;
45402;SDS011;47427;51.976;5.326;2022-12-18T01:14:47;89.35;;;40.10;;
45402;SDS011;47427;51.976;5.326;2022-12-18T01:18:10;83.32;;;39.03;;
45402;SDS011;47427;51.976;5.326;2022-12-18T01:21:33;101.82;;;45.10;;
45402;SDS011;47427;51.976;5.326;2022-12-18T01:24:58;102.30;;;43.58;;
45402;SDS011;47427;51.976;5.326;2022-12-18T01:28:22;89.95;;;40.88;;
45402;SDS011;47427;51.976;5.326;2022-12-18T01:31:44;83.68;;;38.90;;
45402;SDS011;47427;51.976;5.326;2022-12-18T01:35:07;95.95;;;40.38;;
45402;SDS011;47427;51.976;5.326;2022-12-18T01:38:30;84.32;;;40.33;;
45402;SDS011;47427;51.976;5.326;2022-12-18T01:41:53;83.03;;;36.17;;
45402;SDS011;47427;51.976;5.326;2022-12-18T01:45:28;92.50;;;41.83;;
45402;SDS011;47427;51.976;5.326;2022-12-18T01:48:55;82.35;;;39.53;;
45402;SDS011;47427;51.976;5.326;2022-12-18T01:52:21;81.78;;;37.20;;
45402;SDS011;47427;51.976;5.326;2022-12-18T01:55:47;89.45;;;38.83;;
45402;SDS011;47427;51.976;5.326;2022-12-18T01:59:12;81.30;;;38.50;;
45402;SDS011;47427;51.976;5.326;2022-12-18T02:02:34;85.85;;;38.90;;
45402;SDS011;47427;51.976;5.326;2022-12-18T02:09:43;79.88;;;37.80;;
45402;SDS011;47427;51.976;5.326;2022-12-18T02:17:03;85.45;;;38.47;;
45402;SDS011;47427;51.976;5.326;2022-12-18T02:28:47;96.03;;;43.97;;
45402;SDS011;47427;51.976;5.326;2022-12-18T02:32:39;87.80;;;39.28;;
45402;SDS011;47427;51.976;5.326;2022-12-18T02:36:04;85.60;;;38.30;;
45402;SDS011;47427;51.976;5.326;2022-12-18T02:39:28;81.55;;;37.55;;
45402;SDS011;47427;51.976;5.326;2022-12-18T02:43:15;87.60;;;41.80;;
45402;SDS011;47427;51.976;5.326;2022-12-18T02:46:43;88.75;;;40.28;;
45402;SDS011;47427;51.976;5.326;2022-12-18T02:54:03;87.68;;;40.83;;
45402;SDS011;47427;51.976;5.326;2022-12-18T02:57:56;83.65;;;39.95;;
45402;SDS011;47427;51.976;5.326;2022-12-18T03:01:31;77.82;;;40.08;;
45402;SDS011;47427;51.976;5.326;2022-12-18T03:05:05;84.72;;;40.75;;
45402;SDS011;47427;51.976;5.326;2022-12-18T03:08:41;78.10;;;38.85;;
45402;SDS011;47427;51.976;5.326;2022-12-18T03:12:30;78.32;;;38.42;;
45402;SDS011;47427;51.976;5.326;2022-12-18T03:16:04;89.20;;;39.63;;
45402;SDS011;47427;51.976;5.326;2022-12-18T03:19:32;73.95;;;36.10;;
45402;SDS011;47427;51.976;5.326;2022-12-18T03:23:07;76.15;;;37.60;;
45402;SDS011;47427;51.976;5.326;2022-12-18T03:26:42;75.28;;;35.35;;
45402;SDS011;47427;51.976;5.326;2022-12-18T03:30:09;75.78;;;35.90;;
45402;SDS011;47427;51.976;5.326;2022-12-18T03:34:09;63.92;;;33.17;;
45402;SDS011;47427;51.976;5.326;2022-12-18T03:37:36;64.32;;;34.83;;
45402;SDS011;47427;51.976;5.326;2022-12-18T03:41:00;69.13;;;32.63;;
45402;SDS011;47427;51.976;5.326;2022-12-18T03:49:02;69.80;;;33.45;;
45402;SDS011;47427;51.976;5.326;2022-12-18T03:53:00;69.32;;;32.40;;
45402;SDS011;47427;51.976;5.326;2022-12-18T03:56:58;63.47;;;30.17;;
45402;SDS011;47427;51.976;5.326;2022-12-18T04:00:31;60.42;;;29.50;;
45402;SDS011;47427;51.976;5.326;2022-12-18T04:04:01;48.72;;;26.02;;
45402;SDS011;47427;51.976;5.326;2022-12-18T04:07:29;50.88;;;26.88;;
45402;SDS011;47427;51.976;5.326;2022-12-18T04:10:52;54.70;;;28.42;;
45402;SDS011;47427;51.976;5.326;2022-12-18T04:14:14;55.22;;;26.60;;
45402;SDS011;47427;51.976;5.326;2022-12-18T04:17:36;51.83;;;26.40;;
45402;SDS011;47427;51.976;5.326;2022-12-18T04:21:03;53.58;;;26.08;;
45402;SDS011;47427;51.976;5.326;2022-12-18T04:24:25;46.28;;;23.85;;
45402;SDS011;47427;51.976;5.326;2022-12-18T04:27:58;46.38;;;23.55;;
45402;SDS011;47427;51.976;5.326;2022-12-18T04:31:19;51.17;;;25.58;;
45402;SDS011;47427;51.976;5.326;2022-12-18T04:34:42;46.72;;;24.55;;
45402;SDS011;47427;51.976;5.326;2022-12-18T04:38:05;44.80;;;24.10;;
45402;SDS011;47427;51.976;5.326;2022-12-18T04:41:31;49.25;;;25.13;;
45402;SDS011;47427;51.976;5.326;2022-12-18T04:44:54;43.75;;;22.40;;
45402;SDS011;47427;51.976;5.326;2022-12-18T04:48:20;48.08;;;22.90;;
45402;SDS011;47427;51.976;5.326;2022-12-18T04:51:43;44.33;;;22.17;;
45402;SDS011;47427;51.976;5.326;2022-12-18T04:55:06;46.47;;;24.27;;
45402;SDS011;47427;51.976;5.326;2022-12-18T04:58:29;42.97;;;21.33;;
45402;SDS011;47427;51.976;5.326;2022-12-18T05:01:52;43.88;;;21.48;;
45402;SDS011;47427;51.976;5.326;2022-12-18T05:05:15;47.03;;;24.15;;
45402;SDS011;47427;51.976;5.326;2022-12-18T05:08:38;40.58;;;23.52;;
45402;SDS011;47427;51.976;5.326;2022-12-18T05:12:00;37.80;;;21.80;;
45402;SDS011;47427;51.976;5.326;2022-12-18T05:15:30;35.97;;;21.35;;
45402;SDS011;47427;51.976;5.326;2022-12-18T05:18:55;43.50;;;23.60;;
45402;SDS011;47427;51.976;5.326;2022-12-18T05:22:17;43.72;;;22.70;;
45402;SDS011;47427;51.976;5.326;2022-12-18T05:25:40;43.47;;;24.02;;
45402;SDS011;47427;51.976;5.326;2022-12-18T05:29:03;35.63;;;20.90;;
45402;SDS011;47427;51.976;5.326;2022-12-18T05:32:26;41.30;;;21.95;;
45402;SDS011;47427;51.976;5.326;2022-12-18T05:35:52;37.03;;;20.15;;
45402;SDS011;47427;51.976;5.326;2022-12-18T05:39:19;47.92;;;21.33;;
45402;SDS011;47427;51.976;5.326;2022-12-18T05:42:41;46.03;;;20.58;;
45402;SDS011;47427;51.976;5.326;2022-12-18T05:46:04;36.85;;;19.50;;
45402;SDS011;47427;51.976;5.326;2022-12-18T05:49:36;38.10;;;21.08;;
45402;SDS011;47427;51.976;5.326;2022-12-18T05:52:58;37.42;;;21.15;;
45402;SDS011;47427;51.976;5.326;2022-12-18T05:56:20;42.28;;;21.75;;
45402;SDS011;47427;51.976;5.326;2022-12-18T05:59:43;35.80;;;19.30;;
45402;SDS011;47427;51.976;5.326;2022-12-18T06:03:06;38.33;;;20.90;;
45402;SDS011;47427;51.976;5.326;2022-12-18T06:06:29;37.33;;;19.58;;
45402;SDS011;47427;51.976;5.326;2022-12-18T06:09:51;36.25;;;19.60;;
45402;SDS011;47427;51.976;5.326;2022-12-18T06:13:12;41.17;;;19.15;;
45402;SDS011;47427;51.976;5.326;2022-12-18T06:16:34;36.83;;;19.73;;
45402;SDS011;47427;51.976;5.326;2022-12-18T06:19:56;41.22;;;20.17;;
45402;SDS011;47427;51.976;5.326;2022-12-18T06:23:17;38.33;;;19.67;;
45402;SDS011;47427;51.976;5.326;2022-12-18T06:26:39;33.47;;;19.00;;
45402;SDS011;47427;51.976;5.326;2022-12-18T06:30:01;38.28;;;20.20;;
45402;SDS011;47427;51.976;5.326;2022-12-18T06:33:25;36.30;;;20.55;;
45402;SDS011;47427;51.976;5.326;2022-12-18T06:36:48;33.15;;;19.38;;
45402;SDS011;47427;51.976;5.326;2022-12-18T06:40:10;35.63;;;21.45;;
45402;SDS011;47427;51.976;5.326;2022-12-18T06:43:33;37.47;;;20.20;;
45402;SDS011;47427;51.976;5.326;2022-12-18T06:46:56;37.15;;;20.95;;
45402;SDS011;47427;51.976;5.326;2022-12-18T06:50:19;32.08;;;18.05;;
45402;SDS011;47427;51.976;5.326;2022-12-18T06:53:41;37.38;;;19.73;;
45402;SDS011;47427;51.976;5.326;2022-12-18T06:57:04;39.80;;;20.70;;
45402;SDS011;47427;51.976;5.326;2022-12-18T07:00:27;34.95;;;20.30;;
45402;SDS011;47427;51.976;5.326;2022-12-18T07:03:54;36.92;;;20.33;;
45402;SDS011;47427;51.976;5.326;2022-12-18T07:07:18;40.28;;;20.52;;
45402;SDS011;47427;51.976;5.326;2022-12-18T07:11:02;36.67;;;20.48;;
45402;SDS011;47427;51.976;5.326;2022-12-18T07:14:27;39.67;;;21.00;;
45402;SDS011;47427;51.976;5.326;2022-12-18T07:17:49;37.28;;;21.40;;
45402;SDS011;47427;51.976;5.326;2022-12-18T07:21:17;33.28;;;18.48;;
45402;SDS011;47427;51.976;5.326;2022-12-18T07:24:42;37.17;;;19.15;;
45402;SDS011;47427;51.976;5.326;2022-12-18T07:28:05;34.83;;;20.10;;
45402;SDS011;47427;51.976;5.326;2022-12-18T07:31:28;34.75;;;20.27;;
45402;SDS011;47427;51.976;5.326;2022-12-18T07:34:51;36.40;;;20.55;;
45402;SDS011;47427;51.976;5.326;2022-12-18T07:38:14;35.58;;;19.90;;
45402;SDS011;47427;51.976;5.326;2022-12-18T07:41:36;35.40;;;20.13;;
45402;SDS011;47427;51.976;5.326;2022-12-18T07:45:03;38.05;;;20.65;;
45402;SDS011;47427;51.976;5.326;2022-12-18T07:48:27;34.55;;;21.13;;
45402;SDS011;47427;51.976;5.326;2022-12-18T07:51:53;32.90;;;18.52;;
45402;SDS011;47427;51.976;5.326;2022-12-18T07:55:18;33.67;;;19.10;;
45402;SDS011;47427;51.976;5.326;2022-12-18T07:58:40;30.38;;;18.88;;
45402;SDS011;47427;51.976;5.326;2022-12-18T08:02:03;36.28;;;19.60;;
45402;SDS011;47427;51.976;5.326;2022-12-18T08:05:26;33.90;;;19.77;;
45402;SDS011;47427;51.976;5.326;2022-12-18T08:08:50;40.65;;;22.35;;
45402;SDS011;47427;51.976;5.326;2022-12-18T08:12:15;37.55;;;20.75;;
45402;SDS011;47427;51.976;5.326;2022-12-18T08:15:38;29.98;;;17.90;;
45402;SDS011;47427;51.976;5.326;2022-12-18T08:19:01;34.75;;;18.52;;
45402;SDS011;47427;51.976;5.326;2022-12-18T08:22:25;31.08;;;18.52;;
45402;SDS011;47427;51.976;5.326;2022-12-18T08:25:48;32.35;;;18.67;;
45402;SDS011;47427;51.976;5.326;2022-12-18T08:29:11;30.00;;;17.63;;
45402;SDS011;47427;51.976;5.326;2022-12-18T08:32:34;26.75;;;16.55;;
45402;SDS011;47427;51.976;5.326;2022-12-18T08:36:00;31.73;;;18.73;;
45402;SDS011;47427;51.976;5.326;2022-12-18T08:39:24;29.75;;;18.05;;
45402;SDS011;47427;51.976;5.326;2022-12-18T08:42:47;30.52;;;18.40;;
45402;SDS011;47427;51.976;5.326;2022-12-18T08:46:31;31.73;;;18.02;;
45402;SDS011;47427;51.976;5.326;2022-12-18T08:50:03;29.05;;;17.17;;
45402;SDS011;47427;51.976;5.326;2022-12-18T08:53:26;29.20;;;17.75;;
45402;SDS011;47427;51.976;5.326;2022-12-18T08:56:49;32.55;;;17.23;;
45402;SDS011;47427;51.976;5.326;2022-12-18T09:00:13;26.75;;;15.82;;
45402;SDS011;47427;51.976;5.326;2022-12-18T09:03:36;26.33;;;16.80;;
45402;SDS011;47427;51.976;5.326;2022-12-18T09:06:59;29.63;;;16.95;;
45402;SDS011;47427;51.976;5.326;2022-12-18T09:10:22;27.73;;;17.35;;
45402;SDS011;47427;51.976;5.326;2022-12-18T09:13:45;30.77;;;17.65;;
45402;SDS011;47427;51.976;5.326;2022-12-18T09:17:08;35.65;;;17.20;;
45402;SDS011;47427;51.976;5.326;2022-12-18T09:20:31;27.35;;;16.13;;
45402;SDS011;47427;51.976;5.326;2022-12-18T09:23:54;27.60;;;15.90;;
45402;SDS011;47427;51.976;5.326;2022-12-18T09:27:18;27.10;;;17.38;;
45402;SDS011;47427;51.976;5.326;2022-12-18T09:30:42;31.33;;;16.63;;
45402;SDS011;47427;51.976;5.326;2022-12-18T09:34:09;28.90;;;15.90;;
45402;SDS011;47427;51.976;5.326;2022-12-18T09:37:31;27.65;;;16.30;;
45402;SDS011;47427;51.976;5.326;2022-12-18T09:40:56;25.55;;;15.75;;
45402;SDS011;47427;51.976;5.326;2022-12-18T09:44:44;36.17;;;18.20;;
45402;SDS011;47427;51.976;5.326;2022-12-18T09:48:18;25.83;;;15.93;;
45402;SDS011;47427;51.976;5.326;2022-12-18T09:51:57;25.63;;;15.82;;
45402;SDS011;47427;51.976;5.326;2022-12-18T09:55:43;26.70;;;15.68;;
45402;SDS011;47427;51.976;5.326;2022-12-18T09:59:14;25.30;;;16.02;;
45402;SDS011;47427;51.976;5.326;2022-12-18T10:03:00;25.30;;;16.33;;
45402;SDS011;47427;51.976;5.326;2022-12-18T10:06:39;26.73;;;17.33;;
45402;SDS011;47427;51.976;5.326;2022-12-18T10:13:51;23.67;;;15.55;;
45402;SDS011;47427;51.976;5.326;2022-12-18T10:21:20;23.48;;;15.18;;
45402;SDS011;47427;51.976;5.326;2022-12-18T10:25:05;35.80;;;18.63;;
45402;SDS011;47427;51.976;5.326;2022-12-18T10:28:37;30.05;;;15.95;;
45402;SDS011;47427;51.976;5.326;2022-12-18T10:32:03;25.45;;;15.82;;
45402;SDS011;47427;51.976;5.326;2022-12-18T10:35:25;25.02;;;15.27;;
45402;SDS011;47427;51.976;5.326;2022-12-18T10:38:47;31.60;;;16.50;;
45402;SDS011;47427;51.976;5.326;2022-12-18T10:42:16;22.45;;;14.43;;
45402;SDS011;47427;51.976;5.326;2022-12-18T10:49:33;30.75;;;16.40;;
45402;SDS011;47427;51.976;5.326;2022-12-18T10:52:57;25.92;;;16.50;;
45402;SDS011;47427;51.976;5.326;2022-12-18T10:56:24;29.90;;;16.48;;
45402;SDS011;47427;51.976;5.326;2022-12-18T10:59:55;26.00;;;15.95;;
45402;SDS011;47427;51.976;5.326;2022-12-18T11:03:32;24.00;;;15.35;;
45402;SDS011;47427;51.976;5.326;2022-12-18T11:07:02;27.25;;;16.17;;
45402;SDS011;47427;51.976;5.326;2022-12-18T11:10:33;31.75;;;16.73;;
45402;SDS011;47427;51.976;5.326;2022-12-18T11:14:15;28.13;;;16.48;;
45402;SDS011;47427;51.976;5.326;2022-12-18T11:17:44;31.65;;;18.48;;
45402;SDS011;47427;51.976;5.326;2022-12-18T11:21:12;34.20;;;19.02;;
45402;SDS011;47427;51.976;5.326;2022-12-18T11:24:36;32.65;;;16.77;;
45402;SDS011;47427;51.976;5.326;2022-12-18T11:28:00;29.45;;;14.32;;
45402;SDS011;47427;51.976;5.326;2022-12-18T11:31:27;23.65;;;14.98;;
45402;SDS011;47427;51.976;5.326;2022-12-18T11:34:59;24.77;;;15.43;;
45402;SDS011;47427;51.976;5.326;2022-12-18T11:38:37;27.33;;;16.33;;
45402;SDS011;47427;51.976;5.326;2022-12-18T11:42:16;19.25;;;11.50;;
45402;SDS011;47427;51.976;5.326;2022-12-18T11:46:11;23.45;;;15.10;;
45402;SDS011;47427;51.976;5.326;2022-12-18T11:49:59;26.40;;;15.65;;
45402;SDS011;47427;51.976;5.326;2022-12-18T11:53:24;28.65;;;15.27;;
45402;SDS011;47427;51.976;5.326;2022-12-18T11:56:51;21.23;;;13.70;;
45402;SDS011;47427;51.976;5.326;2022-12-18T12:00:32;26.23;;;14.52;;
45402;SDS011;47427;51.976;5.326;2022-12-18T12:20:20;27.50;;;16.33;;
45402;SDS011;47427;51.976;5.326;2022-12-18T12:23:47;27.00;;;15.50;;
45402;SDS011;47427;51.976;5.326;2022-12-18T12:35:39;26.90;;;15.13;;
45402;SDS011;47427;51.976;5.326;2022-12-18T12:39:18;27.17;;;16.30;;
45402;SDS011;47427;51.976;5.326;2022-12-18T12:42:49;26.17;;;15.68;;
45402;SDS011;47427;51.976;5.326;2022-12-18T12:46:37;24.77;;;16.15;;
45402;SDS011;47427;51.976;5.326;2022-12-18T12:50:04;26.33;;;16.08;;
45402;SDS011;47427;51.976;5.326;2022-12-18T12:53:35;25.40;;;14.25;;
45402;SDS011;47427;51.976;5.326;2022-12-18T13:08:52;26.00;;;16.48;;
45402;SDS011;47427;51.976;5.326;2022-12-18T13:12:19;29.40;;;17.50;;
45402;SDS011;47427;51.976;5.326;2022-12-18T13:16:05;29.05;;;17.13;;
45402;SDS011;47427;51.976;5.326;2022-12-18T13:19:30;29.05;;;17.70;;
45402;SDS011;47427;51.976;5.326;2022-12-18T13:22:52;29.98;;;17.58;;
45402;SDS011;47427;51.976;5.326;2022-12-18T13:29:40;31.67;;;18.63;;
45402;SDS011;47427;51.976;5.326;2022-12-18T13:36:38;29.70;;;17.92;;
45402;SDS011;47427;51.976;5.326;2022-12-18T13:40:01;30.45;;;18.15;;
45402;SDS011;47427;51.976;5.326;2022-12-18T13:47:34;28.52;;;17.33;;
45402;SDS011;47427;51.976;5.326;2022-12-18T13:51:06;30.13;;;16.98;;
45402;SDS011;47427;51.976;5.326;2022-12-18T13:54:39;30.77;;;16.83;;
45402;SDS011;47427;51.976;5.326;2022-12-18T13:58:03;29.17;;;16.92;;
45402;SDS011;47427;51.976;5.326;2022-12-18T14:01:26;40.33;;;23.58;;
45402;SDS011;47427;51.976;5.326;2022-12-18T14:04:48;29.45;;;16.85;;
45402;SDS011;47427;51.976;5.326;2022-12-18T14:08:14;31.67;;;19.05;;
45402;SDS011;47427;51.976;5.326;2022-12-18T14:11:36;28.83;;;17.67;;
45402;SDS011;47427;51.976;5.326;2022-12-18T14:14:59;33.72;;;18.23;;
45402;SDS011;47427;51.976;5.326;2022-12-18T14:22:16;31.83;;;17.73;;
45402;SDS011;47427;51.976;5.326;2022-12-18T14:25:45;33.70;;;18.38;;
45402;SDS011;47427;51.976;5.326;2022-12-18T14:32:59;41.35;;;21.40;;
45402;SDS011;47427;51.976;5.326;2022-12-18T14:36:26;28.23;;;17.35;;
45402;SDS011;47427;51.976;5.326;2022-12-18T14:39:56;30.80;;;18.70;;
45402;SDS011;47427;51.976;5.326;2022-12-18T14:43:26;30.77;;;18.42;;
45402;SDS011;47427;51.976;5.326;2022-12-18T14:46:53;31.52;;;18.92;;
45402;SDS011;47427;51.976;5.326;2022-12-18T14:50:15;32.33;;;18.75;;
45402;SDS011;47427;51.976;5.326;2022-12-18T14:53:40;31.60;;;18.75;;
45402;SDS011;47427;51.976;5.326;2022-12-18T14:57:32;25.92;;;16.35;;
45402;SDS011;47427;51.976;5.326;2022-12-18T15:00:58;30.90;;;17.80;;
45402;SDS011;47427;51.976;5.326;2022-12-18T15:04:25;27.20;;;16.48;;
45402;SDS011;47427;51.976;5.326;2022-12-18T15:07:59;31.83;;;17.73;;
45402;SDS011;47427;51.976;5.326;2022-12-18T15:14:56;28.55;;;17.80;;
45402;SDS011;47427;51.976;5.326;2022-12-18T15:18:18;26.45;;;16.55;;
45402;SDS011;47427;51.976;5.326;2022-12-18T15:21:50;34.38;;;20.08;;
45402;SDS011;47427;51.976;5.326;2022-12-18T15:29:03;32.03;;;19.58;;
45402;SDS011;47427;51.976;5.326;2022-12-18T15:32:25;31.60;;;19.25;;
45402;SDS011;47427;51.976;5.326;2022-12-18T15:35:46;33.55;;;20.38;;
45402;SDS011;47427;51.976;5.326;2022-12-18T15:39:18;32.45;;;18.75;;
45402;SDS011;47427;51.976;5.326;2022-12-18T15:42:40;36.67;;;21.02;;
45402;SDS011;47427;51.976;5.326;2022-12-18T15:46:23;35.58;;;19.42;;
45402;SDS011;47427;51.976;5.326;2022-12-18T15:49:46;34.45;;;19.63;;
45402;SDS011;47427;51.976;5.326;2022-12-18T15:53:09;36.20;;;20.83;;
45402;SDS011;47427;51.976;5.326;2022-12-18T15:56:32;41.78;;;21.58;;
45402;SDS011;47427;51.976;5.326;2022-12-18T16:00:13;33.80;;;20.67;;
45402;SDS011;47427;51.976;5.326;2022-12-18T16:03:35;39.33;;;21.40;;
45402;SDS011;47427;51.976;5.326;2022-12-18T16:06:58;40.10;;;22.27;;
45402;SDS011;47427;51.976;5.326;2022-12-18T16:10:19;36.83;;;21.77;;
45402;SDS011;47427;51.976;5.326;2022-12-18T16:13:41;36.63;;;21.05;;
45402;SDS011;47427;51.976;5.326;2022-12-18T16:17:05;39.03;;;21.00;;
45402;SDS011;47427;51.976;5.326;2022-12-18T16:20:30;42.33;;;20.92;;
45402;SDS011;47427;51.976;5.326;2022-12-18T16:23:52;33.63;;;19.50;;
45402;SDS011;47427;51.976;5.326;2022-12-18T16:27:14;31.30;;;17.73;;
45402;SDS011;47427;51.976;5.326;2022-12-18T16:30:35;34.20;;;20.38;;
45402;SDS011;47427;51.976;5.326;2022-12-18T16:37:55;32.00;;;19.45;;
45402;SDS011;47427;51.976;5.326;2022-12-18T16:41:17;38.35;;;21.60;;
45402;SDS011;47427;51.976;5.326;2022-12-18T16:45:13;33.97;;;20.10;;
45402;SDS011;47427;51.976;5.326;2022-12-18T16:48:38;39.25;;;21.63;;
45402;SDS011;47427;51.976;5.326;2022-12-18T16:52:01;39.75;;;21.10;;
45402;SDS011;47427;51.976;5.326;2022-12-18T16:55:25;40.05;;;20.95;;
45402;SDS011;47427;51.976;5.326;2022-12-18T16:58:51;39.45;;;22.23;;
45402;SDS011;47427;51.976;5.326;2022-12-18T17:02:16;35.40;;;21.48;;
45402;SDS011;47427;51.976;5.326;2022-12-18T17:05:44;33.65;;;20.90;;
45402;SDS011;47427;51.976;5.326;2022-12-18T17:09:10;40.60;;;21.85;;
45402;SDS011;47427;51.976;5.326;2022-12-18T17:12:35;45.00;;;23.48;;
45402;SDS011;47427;51.976;5.326;2022-12-18T17:16:04;35.92;;;20.77;;
45402;SDS011;47427;51.976;5.326;2022-12-18T17:19:28;39.05;;;21.92;;
45402;SDS011;47427;51.976;5.326;2022-12-18T17:22:52;36.47;;;20.52;;
45402;SDS011;47427;51.976;5.326;2022-12-18T17:26:15;39.65;;;20.70;;
45402;SDS011;47427;51.976;5.326;2022-12-18T17:29:37;37.80;;;21.38;;
45402;SDS011;47427;51.976;5.326;2022-12-18T17:33:00;38.58;;;21.38;;
45402;SDS011;47427;51.976;5.326;2022-12-18T17:36:22;41.63;;;20.08;;
45402;SDS011;47427;51.976;5.326;2022-12-18T17:39:45;38.33;;;21.20;;
45402;SDS011;47427;51.976;5.326;2022-12-18T17:43:09;34.60;;;21.35;;
45402;SDS011;47427;51.976;5.326;2022-12-18T17:46:32;41.13;;;23.10;;
45402;SDS011;47427;51.976;5.326;2022-12-18T17:49:55;34.90;;;20.80;;
45402;SDS011;47427;51.976;5.326;2022-12-18T17:53:16;43.13;;;22.33;;
45402;SDS011;47427;51.976;5.326;2022-12-18T17:56:38;41.05;;;21.00;;
45402;SDS011;47427;51.976;5.326;2022-12-18T17:59:59;38.42;;;20.38;;
45402;SDS011;47427;51.976;5.326;2022-12-18T18:03:21;40.53;;;23.00;;
45402;SDS011;47427;51.976;5.326;2022-12-18T18:06:43;41.03;;;22.65;;
45402;SDS011;47427;51.976;5.326;2022-12-18T18:10:04;48.95;;;28.38;;
45402;SDS011;47427;51.976;5.326;2022-12-18T18:13:27;39.35;;;22.73;;
45402;SDS011;47427;51.976;5.326;2022-12-18T18:17:07;44.05;;;22.65;;
45402;SDS011;47427;51.976;5.326;2022-12-18T18:20:30;38.42;;;22.42;;
45402;SDS011;47427;51.976;5.326;2022-12-18T18:23:52;42.58;;;21.80;;
45402;SDS011;47427;51.976;5.326;2022-12-18T18:27:13;40.55;;;22.80;;
45402;SDS011;47427;51.976;5.326;2022-12-18T18:30:35;36.75;;;22.90;;
45402;SDS011;47427;51.976;5.326;2022-12-18T18:33:57;39.00;;;21.55;;
45402;SDS011;47427;51.976;5.326;2022-12-18T18:37:18;36.15;;;21.02;;
45402;SDS011;47427;51.976;5.326;2022-12-18T18:40:40;39.72;;;22.02;;
45402;SDS011;47427;51.976;5.326;2022-12-18T18:44:40;36.97;;;19.70;;
45402;SDS011;47427;51.976;5.326;2022-12-18T18:48:03;37.47;;;19.88;;
45402;SDS011;47427;51.976;5.326;2022-12-18T18:51:26;49.55;;;24.45;;
45402;SDS011;47427;51.976;5.326;2022-12-18T18:54:49;40.08;;;20.90;;
45402;SDS011;47427;51.976;5.326;2022-12-18T18:58:11;34.88;;;21.88;;
45402;SDS011;47427;51.976;5.326;2022-12-18T19:01:33;41.08;;;21.98;;
45402;SDS011;47427;51.976;5.326;2022-12-18T19:04:55;39.72;;;23.90;;
45402;SDS011;47427;51.976;5.326;2022-12-18T19:08:17;41.35;;;22.00;;
45402;SDS011;47427;51.976;5.326;2022-12-18T19:11:39;33.55;;;21.42;;
45402;SDS011;47427;51.976;5.326;2022-12-18T19:15:19;41.20;;;22.20;;
45402;SDS011;47427;51.976;5.326;2022-12-18T19:18:41;34.78;;;20.52;;
45402;SDS011;47427;51.976;5.326;2022-12-18T19:22:22;39.70;;;22.50;;
45402;SDS011;47427;51.976;5.326;2022-12-18T19:25:45;41.30;;;23.35;;
45402;SDS011;47427;51.976;5.326;2022-12-18T19:29:09;41.08;;;23.70;;
45402;SDS011;47427;51.976;5.326;2022-12-18T19:32:32;38.22;;;22.58;;
45402;SDS011;47427;51.976;5.326;2022-12-18T19:35:55;39.85;;;19.35;;
45402;SDS011;47427;51.976;5.326;2022-12-18T19:39:18;44.50;;;22.05;;
45402;SDS011;47427;51.976;5.326;2022-12-18T19:42:40;39.83;;;23.30;;
45402;SDS011;47427;51.976;5.326;2022-12-18T19:46:04;37.72;;;22.77;;
45402;SDS011;47427;51.976;5.326;2022-12-18T19:49:47;41.22;;;21.85;;
45402;SDS011;47427;51.976;5.326;2022-12-18T19:53:10;35.72;;;21.70;;
45402;SDS011;47427;51.976;5.326;2022-12-18T19:56:33;47.55;;;24.20;;
45402;SDS011;47427;51.976;5.326;2022-12-18T19:59:56;44.35;;;25.02;;
45402;SDS011;47427;51.976;5.326;2022-12-18T20:03:19;41.55;;;23.95;;
45402;SDS011;47427;51.976;5.326;2022-12-18T20:06:45;42.80;;;25.52;;
45402;SDS011;47427;51.976;5.326;2022-12-18T20:10:12;41.50;;;25.63;;
45402;SDS011;47427;51.976;5.326;2022-12-18T20:14:02;42.65;;;24.85;;
45402;SDS011;47427;51.976;5.326;2022-12-18T20:17:24;45.63;;;25.45;;
45402;SDS011;47427;51.976;5.326;2022-12-18T20:20:45;42.53;;;24.55;;
45402;SDS011;47427;51.976;5.326;2022-12-18T20:24:07;43.35;;;24.33;;
45402;SDS011;47427;51.976;5.326;2022-12-18T20:27:29;47.72;;;27.02;;
45402;SDS011;47427;51.976;5.326;2022-12-18T20:30:57;55.90;;;29.92;;
45402;SDS011;47427;51.976;5.326;2022-12-18T20:34:20;49.83;;;25.77;;
45402;SDS011;47427;51.976;5.326;2022-12-18T20:37:42;47.95;;;27.65;;
45402;SDS011;47427;51.976;5.326;2022-12-18T20:41:10;42.78;;;24.38;;
45402;SDS011;47427;51.976;5.326;2022-12-18T20:44:37;47.83;;;28.40;;
45402;SDS011;47427;51.976;5.326;2022-12-18T20:48:00;42.47;;;23.67;;
45402;SDS011;47427;51.976;5.326;2022-12-18T20:51:23;52.88;;;29.48;;
45402;SDS011;47427;51.976;5.326;2022-12-18T20:54:46;49.47;;;26.02;;
45402;SDS011;47427;51.976;5.326;2022-12-18T20:58:08;49.47;;;29.50;;
45402;SDS011;47427;51.976;5.326;2022-12-18T21:01:29;47.17;;;28.13;;
45402;SDS011;47427;51.976;5.326;2022-12-18T21:04:51;48.80;;;28.92;;
45402;SDS011;47427;51.976;5.326;2022-12-18T21:08:13;44.50;;;24.90;;
45402;SDS011;47427;51.976;5.326;2022-12-18T21:11:34;48.20;;;24.58;;
45402;SDS011;47427;51.976;5.326;2022-12-18T21:15:15;46.80;;;26.25;;
45402;SDS011;47427;51.976;5.326;2022-12-18T21:18:36;52.33;;;28.17;;
45402;SDS011;47427;51.976;5.326;2022-12-18T21:21:58;50.38;;;29.48;;
45402;SDS011;47427;51.976;5.326;2022-12-18T21:25:21;53.35;;;30.80;;
45402;SDS011;47427;51.976;5.326;2022-12-18T21:28:42;60.90;;;28.40;;
45402;SDS011;47427;51.976;5.326;2022-12-18T21:32:05;58.58;;;32.65;;
45402;SDS011;47427;51.976;5.326;2022-12-18T21:35:30;49.15;;;25.75;;
45402;SDS011;47427;51.976;5.326;2022-12-18T21:38:53;56.22;;;30.85;;
45402;SDS011;47427;51.976;5.326;2022-12-18T21:42:15;55.22;;;27.20;;
45402;SDS011;47427;51.976;5.326;2022-12-18T21:45:56;55.20;;;31.75;;
45402;SDS011;47427;51.976;5.326;2022-12-18T21:49:18;59.85;;;34.47;;